Time;durP1;ratioP1;P1;durP2;ratioP2;P2;SDS_P1;SDS_P2;PMS_P1;PMS_P2;Temp;Humidity;BMP_temperature;BMP_pressure;BME280_temperature;BME280_humidity;BME280_pressure;Samples;Min_cycle;Max_cycle;Signal;HPM_P1;HPM_P2
2021/09/30 00:01:08;;;;;;;0.70;0.50;;;10.30;99.90;;;;;;5029469;28;20203;-76
2021/09/30 00:03:34;;;;;;;0.70;0.50;;;10.30;99.90;;;;;;5035571;28;20183;-77
2021/09/30 00:05:59;;;;;;;0.93;0.80;;;10.20;99.90;;;;;;5026560;28;20191;-76
2021/09/30 00:08:25;;;;;;;0.80;0.70;;;10.30;99.90;;;;;;5034192;28;20740;-76
2021/09/30 00:11:06;;;;;;;0.70;0.50;;;10.30;99.90;;;;;;5031961;28;20176;-76
2021/09/30 00:32:38;;;;;;;0.80;0.60;;;10.20;99.90;;;;;;5023460;28;21012;-77
2021/09/30 00:46:26;;;;;;;0.70;0.70;;;10.10;99.90;;;;;;5021820;28;20434;-76
2021/09/30 00:49:11;;;;;;;0.80;0.60;;;10.10;99.90;;;;;;5014908;28;20780;-77
2021/09/30 00:54:34;;;;;;;0.70;0.50;;;10.10;99.90;;;;;;5016095;28;21192;-76
2021/09/30 01:20:52;;;;;;;0.70;0.50;;;10.00;99.90;;;;;;5033396;28;20516;-77
2021/09/30 02:18:09;;;;;;;0.70;0.50;;;10.10;99.90;;;;;;5032997;28;20480;-77
2021/09/30 02:26:33;;;;;;;0.70;0.50;;;10.10;99.90;;;;;;5017938;28;20437;-76
2021/09/30 02:59:11;;;;;;;0.70;0.50;;;10.10;99.90;;;;;;5035263;28;20424;-77
2021/09/30 03:01:40;;;;;;;0.70;0.50;;;10.10;99.90;;;;;;5020548;28;20470;-77
2021/09/30 03:04:06;;;;;;;0.70;0.50;;;10.10;99.90;;;;;;5032418;28;20468;-77
2021/09/30 03:06:32;;;;;;;0.80;0.70;;;10.10;99.90;;;;;;5024411;28;20426;-77
2021/09/30 03:09:02;;;;;;;0.70;0.50;;;10.10;99.90;;;;;;5030952;28;20414;-77
2021/09/30 03:11:29;;;;;;;0.70;0.50;;;10.10;99.90;;;;;;5031242;28;20413;-77
2021/09/30 03:13:58;;;;;;;0.80;0.70;;;10.10;99.90;;;;;;5027063;28;20473;-76
2021/09/30 03:16:30;;;;;;;0.70;0.50;;;10.10;99.90;;;;;;5016369;28;20797;-77
2021/09/30 03:19:02;;;;;;;0.70;0.50;;;10.10;99.90;;;;;;5025549;28;20986;-77
2021/09/30 03:24:16;;;;;;;2.30;1.00;;;10.20;99.90;;;;;;5015513;28;20430;-77
2021/09/30 03:26:44;;;;;;;1.10;1.00;;;10.10;99.90;;;;;;5015809;28;20545;-77
2021/09/30 03:29:12;;;;;;;0.80;0.70;;;10.10;99.90;;;;;;5031029;28;20980;-77
2021/09/30 03:31:37;;;;;;;0.70;0.50;;;10.10;99.90;;;;;;5029648;28;20923;-78
2021/09/30 03:34:04;;;;;;;0.70;0.50;;;10.10;99.90;;;;;;5016940;28;20440;-77
2021/09/30 03:36:31;;;;;;;1.63;0.60;;;10.10;99.90;;;;;;5028328;28;20225;-76
2021/09/30 03:38:57;;;;;;;0.80;0.80;;;10.10;99.90;;;;;;5027058;28;20514;-76
2021/09/30 03:41:23;;;;;;;0.70;0.50;;;10.10;99.90;;;;;;5023137;28;20548;-77
2021/09/30 03:43:48;;;;;;;0.70;0.50;;;10.10;99.90;;;;;;5026066;28;20201;-76
2021/09/30 03:46:14;;;;;;;0.70;0.50;;;10.10;99.90;;;;;;5018573;28;20430;-76
2021/09/30 03:48:39;;;;;;;0.70;0.50;;;10.10;99.90;;;;;;5013462;28;20195;-76
2021/09/30 03:51:13;;;;;;;0.70;0.50;;;10.10;99.90;;;;;;5029285;28;20653;-76
2021/09/30 03:53:59;;;;;;;0.70;0.50;;;10.10;99.90;;;;;;5013466;28;20565;-76
2021/09/30 03:56:37;;;;;;;0.80;0.70;;;10.10;99.90;;;;;;5016442;28;20434;-78
2021/09/30 03:59:21;;;;;;;0.70;0.50;;;10.10;99.90;;;;;;5026243;28;20818;-79
2021/09/30 04:01:52;;;;;;;1.53;1.43;;;10.10;99.90;;;;;;5023114;28;20524;-77
2021/09/30 04:04:17;;;;;;;0.70;0.50;;;10.00;99.90;;;;;;5012099;28;20438;-77
2021/09/30 04:06:43;;;;;;;0.70;0.50;;;10.00;99.90;;;;;;5027738;28;20445;-78
2021/09/30 04:09:09;;;;;;;0.70;0.60;;;10.00;99.90;;;;;;5020374;28;20175;-78
2021/09/30 04:11:35;;;;;;;0.70;0.50;;;10.00;99.90;;;;;;5032379;28;20183;-77
2021/09/30 04:14:00;;;;;;;0.70;0.50;;;10.00;99.90;;;;;;5025601;28;20442;-78
2021/09/30 04:16:27;;;;;;;0.70;0.50;;;10.00;99.90;;;;;;5015064;28;20184;-78
2021/09/30 04:18:53;;;;;;;1.13;0.70;;;9.90;99.90;;;;;;5021519;28;20268;-77
2021/09/30 04:21:18;;;;;;;0.70;0.50;;;9.90;99.90;;;;;;5012038;28;20544;-77
2021/09/30 04:23:44;;;;;;;0.83;0.70;;;9.90;99.90;;;;;;5011746;28;20466;-77
2021/09/30 04:26:10;;;;;;;0.70;0.50;;;9.90;99.90;;;;;;5022283;28;20522;-77
2021/09/30 04:28:35;;;;;;;0.70;0.50;;;9.90;99.90;;;;;;5029285;28;20177;-75
2021/09/30 04:31:01;;;;;;;0.70;0.60;;;9.90;99.90;;;;;;5024106;28;20423;-77
2021/09/30 04:33:26;;;;;;;0.70;0.50;;;9.90;99.90;;;;;;5015296;28;20199;-77
2021/09/30 04:35:52;;;;;;;0.80;0.80;;;9.90;99.90;;;;;;5016545;28;20198;-76
2021/09/30 04:38:18;;;;;;;1.10;1.10;;;9.90;99.90;;;;;;5029775;28;20533;-77
2021/09/30 04:40:43;;;;;;;0.70;0.50;;;9.90;99.90;;;;;;5032866;28;20195;-76
2021/09/30 04:43:09;;;;;;;0.70;0.50;;;9.80;99.90;;;;;;5031943;28;20225;-77
2021/09/30 04:45:34;;;;;;;0.70;0.50;;;9.80;99.90;;;;;;5029256;28;20180;-77
2021/09/30 04:48:00;;;;;;;0.70;0.50;;;9.80;99.90;;;;;;5034417;28;20164;-76
2021/09/30 04:50:25;;;;;;;3.47;0.80;;;9.90;99.90;;;;;;5014860;28;20255;-77
2021/09/30 04:52:53;;;;;;;1.53;1.43;;;9.90;99.90;;;;;;5021501;28;20606;-77
2021/09/30 04:55:19;;;;;;;7.50;0.93;;;9.80;99.90;;;;;;5016969;28;20176;-77
2021/09/30 04:57:44;;;;;;;0.70;0.50;;;9.80;99.90;;;;;;5017630;28;20450;-77
2021/09/30 05:00:11;;;;;;;0.70;0.50;;;9.90;99.90;;;;;;5017286;28;20235;-77
2021/09/30 05:02:36;;;;;;;0.70;0.50;;;9.80;99.90;;;;;;5027415;28;20668;-77
2021/09/30 05:05:02;;;;;;;0.70;0.50;;;9.80;99.90;;;;;;5048826;28;20421;-77
2021/09/30 05:07:27;;;;;;;0.70;0.50;;;9.90;99.90;;;;;;5019922;28;20176;-77
2021/09/30 05:09:53;;;;;;;0.70;0.50;;;9.90;99.90;;;;;;5015540;28;20176;-77
2021/09/30 05:12:21;;;;;;;0.70;0.50;;;9.90;99.90;;;;;;5031632;28;20649;-76
2021/09/30 05:14:47;;;;;;;1.50;1.40;;;9.90;99.90;;;;;;5033988;28;20180;-77
2021/09/30 05:17:13;;;;;;;0.77;0.77;;;9.90;99.90;;;;;;5035933;28;20406;-78
2021/09/30 05:19:39;;;;;;;0.80;0.70;;;10.00;99.90;;;;;;5034522;28;20450;-76
2021/09/30 05:22:04;;;;;;;0.70;0.50;;;10.00;99.90;;;;;;5020509;28;20585;-77
2021/09/30 05:24:30;;;;;;;1.17;1.07;;;10.00;99.90;;;;;;5028881;28;20237;-77
2021/09/30 05:26:55;;;;;;;0.80;0.60;;;10.00;99.90;;;;;;5033946;28;20540;-77
2021/09/30 05:29:21;;;;;;;0.70;0.50;;;10.10;99.90;;;;;;5034202;28;20174;-77
2021/09/30 05:31:46;;;;;;;0.70;0.50;;;10.00;99.90;;;;;;5026545;28;20190;-77
2021/09/30 05:34:12;;;;;;;0.70;0.50;;;10.00;99.90;;;;;;5025209;28;20612;-77
2021/09/30 05:36:37;;;;;;;0.80;0.70;;;10.00;99.90;;;;;;5024545;28;20869;-77
2021/09/30 05:39:03;;;;;;;0.70;0.50;;;10.00;99.90;;;;;;5033111;28;20254;-77
2021/09/30 05:41:31;;;;;;;0.80;0.60;;;10.00;99.90;;;;;;5029899;28;20210;-76
2021/09/30 05:44:00;;;;;;;0.70;0.60;;;10.00;99.90;;;;;;5024632;28;20191;-77
2021/09/30 05:46:41;;;;;;;0.70;0.60;;;10.00;99.90;;;;;;5028630;28;20430;-79
2021/09/30 05:49:06;;;;;;;0.70;0.50;;;10.00;99.90;;;;;;5037471;28;20426;-78
2021/09/30 05:51:32;;;;;;;0.70;0.50;;;10.10;99.90;;;;;;5033413;28;20427;-76
2021/09/30 05:53:58;;;;;;;0.70;0.50;;;10.00;99.90;;;;;;5038284;28;20607;-79
2021/09/30 05:56:23;;;;;;;0.70;0.50;;;10.00;99.90;;;;;;5025651;28;20176;-77
2021/09/30 05:58:49;;;;;;;0.70;0.50;;;10.00;99.90;;;;;;5014347;28;20607;-77
2021/09/30 06:14:43;;;;;;;0.70;0.50;;;10.10;99.90;;;;;;5024475;28;20740;-78
2021/09/30 06:17:08;;;;;;;0.90;0.80;;;10.10;99.90;;;;;;5022746;28;20433;-77
2021/09/30 06:19:34;;;;;;;0.70;0.50;;;10.10;99.90;;;;;;5025646;28;20427;-77
2021/09/30 06:22:04;;;;;;;0.70;0.50;;;10.10;99.90;;;;;;5020389;28;20212;-77
2021/09/30 06:24:30;;;;;;;0.70;0.50;;;10.10;99.90;;;;;;5032919;28;20168;-78
2021/09/30 06:26:56;;;;;;;0.70;0.50;;;10.20;99.90;;;;;;5030755;28;20476;-77
2021/09/30 06:29:21;;;;;;;0.87;0.70;;;10.20;99.90;;;;;;5032439;28;20433;-77
2021/09/30 06:31:47;;;;;;;0.70;0.50;;;10.20;99.90;;;;;;5025145;28;20434;-77
2021/09/30 06:34:13;;;;;;;0.70;0.50;;;10.30;99.90;;;;;;5026167;28;20191;-77
2021/09/30 06:36:38;;;;;;;0.70;0.50;;;10.30;99.90;;;;;;5020412;28;20180;-77
2021/09/30 06:39:05;;;;;;;0.70;0.50;;;10.30;99.90;;;;;;5028095;28;20187;-77
2021/09/30 06:41:30;;;;;;;0.70;0.50;;;10.30;99.90;;;;;;5020716;28;20658;-77
2021/09/30 06:43:56;;;;;;;0.80;0.60;;;10.30;99.90;;;;;;5021461;28;20486;-77
2021/09/30 06:46:23;;;;;;;3.27;2.60;;;10.40;99.90;;;;;;5027813;28;20298;-77
2021/09/30 06:48:48;;;;;;;0.70;0.50;;;10.40;99.90;;;;;;5028727;28;20175;-76
2021/09/30 06:51:14;;;;;;;0.70;0.50;;;10.40;99.90;;;;;;5013437;28;20414;-77
2021/09/30 06:53:40;;;;;;;0.70;0.60;;;10.50;99.90;;;;;;5028085;28;20529;-78
2021/09/30 06:56:08;;;;;;;0.80;0.80;;;10.50;99.90;;;;;;5028671;28;20180;-77
2021/09/30 06:58:42;;;;;;;0.70;0.50;;;10.60;99.90;;;;;;5032569;28;20445;-78
2021/09/30 07:01:09;;;;;;;0.70;0.50;;;10.60;99.90;;;;;;5023980;28;20533;-78
2021/09/30 07:03:35;;;;;;;0.70;0.50;;;10.70;99.90;;;;;;5024258;28;20501;-77
2021/09/30 07:06:00;;;;;;;0.70;0.50;;;10.70;99.90;;;;;;5021038;28;20418;-77
2021/09/30 07:08:26;;;;;;;0.70;0.50;;;10.80;99.90;;;;;;5032759;28;20186;-78
2021/09/30 07:10:51;;;;;;;0.70;0.57;;;10.90;99.90;;;;;;5018115;28;20261;-78
2021/09/30 07:13:17;;;;;;;1.10;0.70;;;10.90;99.90;;;;;;5029544;28;20199;-78
2021/09/30 07:15:43;;;;;;;0.70;0.50;;;11.00;99.90;;;;;;5030109;28;20176;-78
2021/09/30 07:18:11;;;;;;;1.07;0.60;;;11.10;99.90;;;;;;5031030;28;20541;-78
2021/09/30 07:20:37;;;;;;;1.07;0.63;;;11.10;99.90;;;;;;5020732;28;20199;-77
2021/09/30 07:23:02;;;;;;;0.70;0.50;;;11.20;99.90;;;;;;5030481;28;20469;-79
2021/09/30 07:25:28;;;;;;;0.70;0.50;;;11.30;99.90;;;;;;5028961;28;20222;-78
2021/09/30 07:27:54;;;;;;;0.70;0.50;;;11.40;99.90;;;;;;5031780;28;20187;-77
2021/09/30 07:30:19;;;;;;;0.97;0.70;;;11.50;99.90;;;;;;5030693;28;20592;-77
2021/09/30 07:32:45;;;;;;;0.70;0.50;;;11.60;99.90;;;;;;5013176;28;20219;-77
2021/09/30 07:35:10;;;;;;;1.13;0.90;;;11.70;99.90;;;;;;5031599;28;20183;-77
2021/09/30 07:37:36;;;;;;;0.70;0.50;;;11.80;99.90;;;;;;5022661;28;20548;-77
2021/09/30 07:40:03;;;;;;;0.70;0.50;;;11.90;99.90;;;;;;5016614;28;20530;-79
2021/09/30 07:42:28;;;;;;;0.70;0.60;;;12.00;99.90;;;;;;5034074;28;20524;-79
2021/09/30 07:44:54;;;;;;;0.70;0.50;;;12.10;99.90;;;;;;5031936;28;20521;-75
2021/09/30 07:47:19;;;;;;;0.70;0.50;;;12.30;99.90;;;;;;5030102;28;20180;-77
2021/09/30 07:49:45;;;;;;;0.70;0.50;;;12.40;99.90;;;;;;5041108;28;20187;-79
2021/09/30 07:52:11;;;;;;;4.20;0.90;;;12.50;99.90;;;;;;5024880;28;20210;-76
2021/09/30 07:54:36;;;;;;;0.80;0.60;;;12.60;99.90;;;;;;5028051;28;20191;-79
2021/09/30 07:57:02;;;;;;;1.27;1.17;;;12.70;99.90;;;;;;5017966;28;20192;-77
2021/09/30 07:59:28;;;;;;;0.70;0.50;;;12.80;99.90;;;;;;5018674;28;20191;-79
2021/09/30 08:01:53;;;;;;;0.70;0.50;;;12.90;99.90;;;;;;5025472;28;20464;-76
2021/09/30 08:04:19;;;;;;;0.70;0.50;;;13.10;99.90;;;;;;5035591;28;20188;-78
2021/09/30 08:06:45;;;;;;;0.70;0.50;;;13.40;99.90;;;;;;5034278;28;20179;-79
2021/09/30 08:09:10;;;;;;;0.70;0.50;;;13.70;99.90;;;;;;5030820;28;20168;-79
2021/09/30 08:11:36;;;;;;;0.70;0.50;;;13.90;99.90;;;;;;5024446;28;20183;-79
2021/09/30 08:14:02;;;;;;;0.70;0.50;;;14.40;99.90;;;;;;5029942;28;20259;-79
2021/09/30 08:16:27;;;;;;;0.70;0.50;;;14.90;99.90;;;;;;5024832;28;20194;-78
2021/09/30 08:18:55;;;;;;;1.33;0.83;;;15.50;99.90;;;;;;5036893;28;20449;-80
2021/09/30 08:21:22;;;;;;;0.70;0.50;;;16.10;99.90;;;;;;5021525;28;20207;-79
2021/09/30 08:23:48;;;;;;;0.73;0.50;;;16.80;99.90;;;;;;5033402;28;20478;-79
2021/09/30 08:26:18;;;;;;;0.80;0.50;;;17.40;99.90;;;;;;5030214;28;20441;-78
2021/09/30 08:28:47;;;;;;;0.80;0.50;;;18.00;99.90;;;;;;5019702;28;20180;-79
2021/09/30 08:31:14;;;;;;;2.13;2.03;;;18.50;99.90;;;;;;5024059;28;20418;-79
2021/09/30 08:33:40;;;;;;;1.00;0.70;;;18.60;99.90;;;;;;5021258;28;20533;-79
2021/09/30 08:36:09;;;;;;;0.80;0.60;;;18.40;99.90;;;;;;5024574;28;20417;-80
2021/09/30 08:38:35;;;;;;;1.00;0.90;;;18.30;99.90;;;;;;5029771;28;20435;-80
2021/09/30 08:41:01;;;;;;;1.47;0.83;;;18.40;99.90;;;;;;5033602;28;20450;-82
2021/09/30 08:43:27;;;;;;;3.13;0.70;;;18.60;99.90;;;;;;5023897;28;20204;-81
2021/09/30 08:45:53;;;;;;;0.73;0.50;;;18.80;99.90;;;;;;5026369;28;20172;-79
2021/09/30 08:48:19;;;;;;;1.10;0.67;;;19.20;99.90;;;;;;5032377;28;20423;-78
2021/09/30 08:50:44;;;;;;;0.80;0.50;;;19.40;99.90;;;;;;5028747;28;20433;-79
2021/09/30 08:53:12;;;;;;;0.80;0.60;;;19.90;99.90;;;;;;5033916;28;20202;-79
2021/09/30 08:55:38;;;;;;;0.80;0.50;;;20.30;99.90;;;;;;5036248;28;20175;-79
2021/09/30 08:58:05;;;;;;;0.90;0.60;;;20.70;99.90;;;;;;5031044;28;20450;-78
2021/09/30 09:00:32;;;;;;;0.80;0.60;;;21.00;99.90;;;;;;5017499;28;20545;-78
2021/09/30 09:02:58;;;;;;;0.80;0.70;;;21.50;99.90;;;;;;5030390;28;20599;-78
2021/09/30 09:05:25;;;;;;;1.43;1.23;;;22.00;99.90;;;;;;5033356;28;20433;-76
2021/09/30 09:07:58;;;;;;;0.80;0.60;;;22.00;97.40;;;;;;5026190;28;20429;-75
2021/09/30 09:10:27;;;;;;;0.80;0.50;;;22.20;96.40;;;;;;5031704;28;20970;-75
2021/09/30 09:13:15;;;;;;;0.80;0.50;;;22.50;95.90;;;;;;5024791;28;20835;-76
2021/09/30 09:15:41;;;;;;;1.40;1.23;;;22.90;93.90;;;;;;5022729;28;20426;-76
2021/09/30 09:18:21;;;;;;;0.80;0.50;;;23.10;91.30;;;;;;5032676;28;20966;-75
2021/09/30 09:21:07;;;;;;;1.00;0.70;;;22.80;90.20;;;;;;5020561;28;20203;-75
2021/09/30 09:23:38;;;;;;;0.80;0.53;;;22.70;91.30;;;;;;5029547;28;20418;-76
2021/09/30 09:26:17;;;;;;;0.80;0.60;;;22.80;88.10;;;;;;5033816;28;20437;-75
2021/09/30 09:29:06;;;;;;;0.70;0.50;;;22.80;87.50;;;;;;5016405;28;20434;-76
2021/09/30 09:31:43;;;;;;;0.97;0.60;;;22.90;89.70;;;;;;5019564;28;20434;-76
2021/09/30 09:34:32;;;;;;;0.80;0.60;;;22.10;86.50;;;;;;5029165;28;20512;-75
2021/09/30 09:37:37;;;;;;;0.87;0.60;;;22.20;85.20;;;;;;5032973;28;20851;-76
2021/09/30 09:40:15;;;;;;;0.80;0.60;;;22.70;85.80;;;;;;5024370;28;20955;-76
2021/09/30 09:42:40;;;;;;;0.80;0.70;;;23.20;87.90;;;;;;5015907;28;20494;-76
2021/09/30 09:45:10;;;;;;;0.80;0.60;;;23.60;83.90;;;;;;5013853;28;20498;-76
2021/09/30 09:47:38;;;;;;;0.80;0.60;;;24.20;83.50;;;;;;5020008;28;20180;-74
2021/09/30 09:50:22;;;;;;;1.07;0.90;;;24.00;79.80;;;;;;5021480;28;20505;-76
2021/09/30 09:52:48;;;;;;;0.80;0.50;;;23.70;76.30;;;;;;5022037;28;20447;-75
2021/09/30 09:55:16;;;;;;;0.90;0.60;;;23.80;81.40;;;;;;5022100;28;20434;-76
2021/09/30 09:57:56;;;;;;;0.80;0.57;;;23.70;76.10;;;;;;5020560;28;20271;-75
2021/09/30 10:00:22;;;;;;;0.80;0.50;;;23.00;73.80;;;;;;5021076;28;20877;-74
2021/09/30 10:02:47;;;;;;;0.80;0.60;;;22.50;76.30;;;;;;5022468;28;20477;-75
2021/09/30 10:05:13;;;;;;;0.80;0.50;;;21.80;76.40;;;;;;5021665;28;20668;-74
2021/09/30 10:07:39;;;;;;;0.80;0.50;;;21.50;80.30;;;;;;5021534;28;20176;-75
2021/09/30 10:10:06;;;;;;;2.03;0.90;;;21.50;77.40;;;;;;5021282;28;20251;-75
2021/09/30 10:12:32;;;;;;;0.80;0.60;;;21.60;78.40;;;;;;5022054;28;20477;-74
2021/09/30 10:14:58;;;;;;;0.80;0.70;;;21.90;77.50;;;;;;5020177;28;20431;-74
2021/09/30 10:17:25;;;;;;;3.33;1.00;;;22.40;81.50;;;;;;5018329;28;20517;-74
2021/09/30 10:19:50;;;;;;;2.60;1.33;;;22.20;73.50;;;;;;5021240;28;20200;-74
2021/09/30 10:22:16;;;;;;;0.80;0.60;;;21.80;76.30;;;;;;5020720;28;20487;-74
2021/09/30 10:24:43;;;;;;;0.80;0.60;;;21.50;76.60;;;;;;5021509;28;20192;-75
2021/09/30 10:27:11;;;;;;;0.80;0.60;;;21.00;76.90;;;;;;5019188;28;20171;-75
2021/09/30 10:29:44;;;;;;;0.80;0.50;;;20.90;78.90;;;;;;5020664;28;20426;-75
2021/09/30 10:32:12;;;;;;;1.00;0.70;;;21.20;85.00;;;;;;5018430;28;20450;-74
2021/09/30 10:34:41;;;;;;;1.20;0.77;;;21.40;82.40;;;;;;5022041;28;20418;-74
2021/09/30 10:37:17;;;;;;;0.90;0.70;;;21.50;81.70;;;;;;5019214;28;20422;-74
2021/09/30 10:39:48;;;;;;;0.80;0.60;;;21.50;81.00;;;;;;5023124;28;20426;-75
2021/09/30 10:42:44;;;;;;;0.80;0.70;;;21.50;82.50;;;;;;5019528;28;20833;-77
2021/09/30 10:45:15;;;;;;;0.80;0.60;;;21.30;82.40;;;;;;5021217;28;20426;-75
2021/09/30 10:47:42;;;;;;;1.90;1.77;;;21.40;82.30;;;;;;5020457;28;20894;-75
2021/09/30 10:50:07;;;;;;;0.80;0.70;;;22.00;85.30;;;;;;5020899;28;20407;-75
2021/09/30 10:52:47;;;;;;;0.80;0.50;;;22.60;78.70;;;;;;5023364;28;20504;-75
2021/09/30 10:55:21;;;;;;;1.53;1.43;;;23.20;79.90;;;;;;5023589;28;20489;-75
2021/09/30 10:57:52;;;;;;;0.80;0.60;;;23.50;75.40;;;;;;5020696;28;20442;-75
2021/09/30 11:00:18;;;;;;;0.80;0.50;;;24.20;75.10;;;;;;5020698;28;20477;-75
2021/09/30 11:03:10;;;;;;;3.57;0.80;;;24.50;73.00;;;;;;5019269;28;20793;-75
2021/09/30 11:05:40;;;;;;;1.30;1.20;;;24.80;70.00;;;;;;5017014;28;20202;-75
2021/09/30 11:08:26;;;;;;;0.80;0.50;;;24.90;69.10;;;;;;5022300;28;20426;-75
2021/09/30 11:11:01;;;;;;;1.57;0.80;;;24.80;66.70;;;;;;5021144;28;20536;-75
2021/09/30 11:13:30;;;;;;;0.80;0.60;;;24.70;64.90;;;;;;5023139;28;20453;-75
2021/09/30 11:16:03;;;;;;;0.80;0.50;;;24.40;67.30;;;;;;5019532;28;20521;-75
2021/09/30 11:18:51;;;;;;;0.80;0.60;;;24.40;65.00;;;;;;5018840;28;20439;-75
2021/09/30 11:21:29;;;;;;;1.00;0.70;;;24.20;66.70;;;;;;5021625;28;20461;-74
2021/09/30 11:23:55;;;;;;;4.90;3.10;;;23.70;62.90;;;;;;5019073;28;20449;-75
2021/09/30 11:26:21;;;;;;;0.80;0.60;;;23.20;64.30;;;;;;5019005;28;20427;-75
2021/09/30 11:28:46;;;;;;;0.80;0.50;;;23.00;65.60;;;;;;5019377;28;20473;-74
2021/09/30 11:31:29;;;;;;;1.10;1.00;;;22.90;65.30;;;;;;5021624;28;20171;-75
2021/09/30 11:33:57;;;;;;;0.80;0.50;;;22.50;64.40;;;;;;5019381;28;20609;-75
2021/09/30 11:36:35;;;;;;;0.80;0.50;;;22.50;66.50;;;;;;5021933;28;20406;-75
2021/09/30 11:39:02;;;;;;;0.80;0.50;;;21.90;64.90;;;;;;5022342;28;20537;-74
2021/09/30 11:41:32;;;;;;;0.80;0.50;;;21.60;67.80;;;;;;5024288;28;20450;-74
2021/09/30 11:43:57;;;;;;;1.10;1.00;;;21.40;69.40;;;;;;5021601;28;20807;-74
2021/09/30 11:46:28;;;;;;;0.80;0.50;;;21.20;68.00;;;;;;5023227;28;20402;-74
2021/09/30 11:49:05;;;;;;;0.80;0.50;;;20.90;72.10;;;;;;5014548;28;20710;-75
2021/09/30 11:51:45;;;;;;;1.07;0.90;;;20.50;71.10;;;;;;5032506;28;20406;-74
2021/09/30 11:54:13;;;;;;;0.80;0.50;;;20.30;73.30;;;;;;5030293;28;20429;-74
2021/09/30 11:56:45;;;;;;;5.03;0.70;;;20.10;73.20;;;;;;5025113;28;20567;-74
2021/09/30 11:59:11;;;;;;;0.80;0.50;;;20.00;75.90;;;;;;5017541;28;20445;-74
2021/09/30 12:01:45;;;;;;;1.73;0.90;;;19.90;77.30;;;;;;5012471;28;20451;-74
2021/09/30 12:04:12;;;;;;;0.80;0.50;;;19.80;77.40;;;;;;5047190;28;20313;-73
2021/09/30 12:06:46;;;;;;;0.93;0.83;;;20.00;80.70;;;;;;5030970;28;20403;-74
2021/09/30 12:09:14;;;;;;;0.90;0.80;;;20.10;78.00;;;;;;5030789;28;20416;-74
2021/09/30 12:11:49;;;;;;;0.70;0.50;;;20.10;77.00;;;;;;5032823;28;20410;-75
2021/09/30 12:14:15;;;;;;;2.30;2.20;;;20.00;79.90;;;;;;5018240;28;20473;-75
2021/09/30 12:16:56;;;;;;;0.70;0.50;;;19.90;77.90;;;;;;5032744;28;20456;-75
2021/09/30 12:19:33;;;;;;;1.13;1.03;;;20.00;82.30;;;;;;5014484;28;20414;-75
2021/09/30 12:22:00;;;;;;;0.80;0.60;;;20.20;78.60;;;;;;5013624;28;20466;-75
2021/09/30 12:24:27;;;;;;;0.80;0.57;;;20.30;82.90;;;;;;5017381;28;20427;-75
2021/09/30 12:26:53;;;;;;;1.20;0.80;;;20.20;75.60;;;;;;5019448;28;20494;-74
2021/09/30 12:29:20;;;;;;;0.80;0.50;;;20.20;77.70;;;;;;5015786;28;20423;-75
2021/09/30 12:32:00;;;;;;;0.77;0.50;;;20.20;78.00;;;;;;5014364;28;20168;-75
2021/09/30 12:34:26;;;;;;;0.70;0.50;;;20.20;76.30;;;;;;5013913;28;20831;-75
2021/09/30 12:36:52;;;;;;;0.80;0.50;;;20.00;77.10;;;;;;5032575;28;20414;-74
2021/09/30 12:39:29;;;;;;;0.80;0.60;;;19.80;75.50;;;;;;5026382;28;20233;-74
2021/09/30 12:42:09;;;;;;;1.20;1.00;;;19.60;77.00;;;;;;5024436;28;20207;-75
2021/09/30 12:44:34;;;;;;;0.80;0.50;;;19.60;79.50;;;;;;5018228;28;20421;-75
2021/09/30 12:47:00;;;;;;;0.80;0.50;;;19.50;77.70;;;;;;5033371;28;20418;-75
2021/09/30 12:49:26;;;;;;;0.80;0.60;;;19.50;78.70;;;;;;5036131;28;20172;-75
2021/09/30 12:51:52;;;;;;;0.80;0.50;;;19.40;80.80;;;;;;5030972;28;20672;-75
2021/09/30 12:54:25;;;;;;;0.80;0.50;;;19.30;80.20;;;;;;5015786;28;20179;-74
2021/09/30 12:56:51;;;;;;;0.80;0.50;;;19.00;80.50;;;;;;5015548;28;20186;-74
2021/09/30 12:59:16;;;;;;;0.70;0.50;;;18.90;82.20;;;;;;5024620;28;20418;-74
2021/09/30 13:01:43;;;;;;;1.67;1.27;;;18.90;85.40;;;;;;5034252;28;20234;-74
2021/09/30 13:04:23;;;;;;;0.77;0.53;;;18.80;84.10;;;;;;5035319;28;20226;-76
2021/09/30 13:06:59;;;;;;;0.70;0.50;;;18.70;84.60;;;;;;5034773;28;20430;-77
2021/09/30 13:09:30;;;;;;;0.80;0.50;;;18.60;86.20;;;;;;5026869;28;20509;-77
2021/09/30 13:12:04;;;;;;;1.00;0.60;;;18.60;86.90;;;;;;5033293;28;20820;-77
2021/09/30 13:14:36;;;;;;;0.70;0.60;;;18.50;90.10;;;;;;5032508;28;20517;-77
2021/09/30 13:17:14;;;;;;;0.80;0.60;;;18.50;87.90;;;;;;5029273;28;20423;-76
2021/09/30 13:19:54;;;;;;;0.80;0.50;;;18.30;88.40;;;;;;5021964;28;20457;-77
2021/09/30 13:22:23;;;;;;;0.80;0.60;;;18.10;88.10;;;;;;5028258;28;20465;-77
2021/09/30 13:24:50;;;;;;;0.80;0.50;;;18.10;88.20;;;;;;5021731;28;20781;-77
2021/09/30 13:27:19;;;;;;;0.70;0.50;;;18.00;91.20;;;;;;5031127;28;20484;-77
2021/09/30 13:29:46;;;;;;;0.80;0.50;;;17.90;90.20;;;;;;5021454;28;20809;-76
2021/09/30 13:32:12;;;;;;;4.33;2.10;;;17.80;91.10;;;;;;5015306;28;20435;-77
2021/09/30 13:34:38;;;;;;;0.70;0.50;;;17.80;91.80;;;;;;5016437;28;20415;-77
2021/09/30 13:37:04;;;;;;;0.70;0.50;;;17.60;91.30;;;;;;5014574;28;20764;-77
2021/09/30 13:39:29;;;;;;;1.30;0.70;;;17.50;91.70;;;;;;5015325;28;20177;-77
2021/09/30 13:41:55;;;;;;;1.03;0.93;;;17.60;94.40;;;;;;5033839;28;20191;-76
2021/09/30 13:44:21;;;;;;;1.37;1.27;;;17.40;93.70;;;;;;5022092;28;20645;-76
2021/09/30 13:46:46;;;;;;;0.70;0.50;;;17.30;93.00;;;;;;5025128;28;20180;-76
2021/09/30 13:49:12;;;;;;;0.70;0.50;;;17.40;94.20;;;;;;5028854;28;20309;-76
2021/09/30 13:51:38;;;;;;;0.70;0.50;;;17.40;94.90;;;;;;5035482;28;20229;-77
2021/09/30 13:54:04;;;;;;;0.70;0.50;;;17.50;98.70;;;;;;5035822;28;20195;-77
2021/09/30 13:56:31;;;;;;;0.80;0.77;;;17.50;99.50;;;;;;5029252;28;20904;-77
2021/09/30 13:58:57;;;;;;;0.70;0.50;;;17.50;97.90;;;;;;5034557;28;20183;-77
2021/09/30 14:01:23;;;;;;;0.70;0.50;;;17.60;98.00;;;;;;5036938;28;20983;-76
2021/09/30 14:03:49;;;;;;;0.70;0.50;;;17.70;97.40;;;;;;5034854;28;20433;-77
2021/09/30 14:06:16;;;;;;;3.97;1.93;;;17.70;96.40;;;;;;5033094;28;20176;-76
2021/09/30 14:08:43;;;;;;;1.30;1.20;;;17.60;96.10;;;;;;5034046;28;20164;-76
2021/09/30 14:11:10;;;;;;;1.20;0.87;;;17.60;96.40;;;;;;5028827;28;20461;-76
2021/09/30 14:13:36;;;;;;;0.70;0.50;;;17.60;99.10;;;;;;5033808;28;20515;-76
2021/09/30 14:16:02;;;;;;;0.70;0.50;;;17.70;97.20;;;;;;5035086;28;20406;-76
2021/09/30 14:18:28;;;;;;;0.80;0.50;;;17.70;97.40;;;;;;5035541;28;20817;-76
2021/09/30 14:20:54;;;;;;;0.70;0.50;;;17.60;96.90;;;;;;5033722;28;20549;-76
2021/09/30 14:23:22;;;;;;;9.20;0.73;;;17.60;95.30;;;;;;5027303;28;20267;-76
2021/09/30 14:25:49;;;;;;;0.80;0.60;;;17.70;94.90;;;;;;5012815;28;20814;-76
2021/09/30 14:28:15;;;;;;;1.90;1.53;;;17.70;94.10;;;;;;5015809;28;20571;-76
2021/09/30 14:30:40;;;;;;;0.70;0.50;;;17.70;95.10;;;;;;5028965;28;20430;-77
2021/09/30 14:33:06;;;;;;;0.70;0.50;;;17.70;93.90;;;;;;5032907;28;20795;-76
2021/09/30 14:35:32;;;;;;;0.80;0.50;;;17.70;94.90;;;;;;5033132;28;20229;-76
2021/09/30 14:37:57;;;;;;;0.70;0.50;;;17.70;94.70;;;;;;5036520;28;20182;-76
2021/09/30 14:40:24;;;;;;;0.70;0.50;;;17.70;95.40;;;;;;5033462;28;20182;-77
2021/09/30 14:42:49;;;;;;;0.70;0.60;;;17.70;94.30;;;;;;5030687;28;20195;-77
2021/09/30 14:45:15;;;;;;;0.80;0.70;;;17.60;95.00;;;;;;5027447;28;20407;-77
2021/09/30 14:47:40;;;;;;;1.30;0.90;;;17.60;95.50;;;;;;5022660;28;20168;-77
2021/09/30 14:50:06;;;;;;;0.70;0.50;;;17.60;96.70;;;;;;5019423;28;20692;-77
2021/09/30 14:52:32;;;;;;;0.70;0.50;;;17.50;95.20;;;;;;5015235;28;20345;-76
2021/09/30 14:54:58;;;;;;;1.70;1.10;;;17.50;96.70;;;;;;5013853;28;20512;-76
2021/09/30 14:57:23;;;;;;;0.70;0.50;;;17.50;96.20;;;;;;5012775;28;20192;-76
2021/09/30 14:59:49;;;;;;;2.10;0.60;;;17.40;96.50;;;;;;5029825;28;20582;-76
2021/09/30 15:02:14;;;;;;;1.57;0.90;;;17.40;97.50;;;;;;5030507;28;20203;-76
2021/09/30 15:04:40;;;;;;;0.80;0.80;;;17.20;97.70;;;;;;5031953;28;20168;-76
2021/09/30 15:07:05;;;;;;;1.07;0.70;;;17.20;98.50;;;;;;5019262;28;20251;-76
2021/09/30 15:09:34;;;;;;;0.90;0.90;;;17.20;99.20;;;;;;5014062;28;20186;-76
2021/09/30 15:12:02;;;;;;;0.70;0.50;;;17.20;99.20;;;;;;5014987;28;20273;-78
2021/09/30 15:14:29;;;;;;;0.80;0.70;;;17.20;99.20;;;;;;5026137;28;20435;-77
2021/09/30 15:16:57;;;;;;;0.80;0.60;;;17.10;99.20;;;;;;5018017;28;20480;-76
2021/09/30 15:19:26;;;;;;;0.70;0.50;;;17.10;99.90;;;;;;5032947;28;20414;-76
2021/09/30 15:21:53;;;;;;;0.80;0.70;;;17.00;99.90;;;;;;5020194;28;20451;-77
2021/09/30 15:24:19;;;;;;;0.80;0.80;;;17.00;99.90;;;;;;5021418;28;20829;-77
2021/09/30 15:26:48;;;;;;;0.90;0.80;;;16.90;99.90;;;;;;5020890;28;20419;-76
2021/09/30 15:29:19;;;;;;;0.70;0.50;;;16.90;99.90;;;;;;5015005;28;20853;-76
2021/09/30 15:31:46;;;;;;;0.70;0.60;;;16.80;99.90;;;;;;5015053;28;20901;-77
2021/09/30 15:34:16;;;;;;;0.70;0.50;;;16.80;99.90;;;;;;5016236;28;20419;-76
2021/09/30 15:36:42;;;;;;;0.70;0.60;;;16.80;99.90;;;;;;5028895;28;20799;-76
2021/09/30 15:39:08;;;;;;;0.70;0.60;;;16.70;99.90;;;;;;5018374;28;20418;-75